sensor_id;sensor_type;location;lat;lon;timestamp;temperature;humidity
12684;DHT22;6406;59.312;18.058;2023-02-08T00:01:09;3.20;99.90
12684;DHT22;6406;59.312;18.058;2023-02-08T00:03:36;3.00;99.90
12684;DHT22;6406;59.312;18.058;2023-02-08T00:06:04;2.50;99.90
12684;DHT22;6406;59.312;18.058;2023-02-08T00:08:32;2.60;99.90
12684;DHT22;6406;59.312;18.058;2023-02-08T00:10:59;2.60;99.90
12684;DHT22;6406;59.312;18.058;2023-02-08T00:13:26;2.50;99.90
12684;DHT22;6406;59.312;18.058;2023-02-08T00:15:54;2.50;99.90
12684;DHT22;6406;59.312;18.058;2023-02-08T00:18:22;4.00;99.90
12684;DHT22;6406;59.312;18.058;2023-02-08T00:20:50;2.80;99.90
12684;DHT22;6406;59.312;18.058;2023-02-08T00:23:17;3.40;99.90
12684;DHT22;6406;59.312;18.058;2023-02-08T00:25:44;3.90;99.90
12684;DHT22;6406;59.312;18.058;2023-02-08T00:28:13;3.10;99.90
12684;DHT22;6406;59.312;18.058;2023-02-08T00:30:41;3.40;99.90
12684;DHT22;6406;59.312;18.058;2023-02-08T00:33:08;3.40;99.90
12684;DHT22;6406;59.312;18.058;2023-02-08T00:35:37;2.60;99.90
12684;DHT22;6406;59.312;18.058;2023-02-08T00:38:08;3.90;99.90
12684;DHT22;6406;59.312;18.058;2023-02-08T00:40:35;0.20;99.90
12684;DHT22;6406;59.312;18.058;2023-02-08T00:43:02;3.00;99.90
12684;DHT22;6406;59.312;18.058;2023-02-08T00:45:30;2.70;99.90
12684;DHT22;6406;59.312;18.058;2023-02-08T00:47:57;4.20;99.90
12684;DHT22;6406;59.312;18.058;2023-02-08T00:50:25;3.70;99.90
12684;DHT22;6406;59.312;18.058;2023-02-08T00:52:53;3.90;99.90
12684;DHT22;6406;59.312;18.058;2023-02-08T00:55:20;3.60;99.90
12684;DHT22;6406;59.312;18.058;2023-02-08T00:57:47;2.60;99.90
12684;DHT22;6406;59.312;18.058;2023-02-08T01:00:14;2.60;99.90
12684;DHT22;6406;59.312;18.058;2023-02-08T01:02:41;2.60;99.90
12684;DHT22;6406;59.312;18.058;2023-02-08T01:05:08;2.10;99.90
12684;DHT22;6406;59.312;18.058;2023-02-08T01:07:35;3.00;99.90
12684;DHT22;6406;59.312;18.058;2023-02-08T01:10:05;2.60;99.90
12684;DHT22;6406;59.312;18.058;2023-02-08T01:12:32;2.60;99.90
12684;DHT22;6406;59.312;18.058;2023-02-08T01:14:59;2.60;99.90
12684;DHT22;6406;59.312;18.058;2023-02-08T01:17:26;3.70;99.90
12684;DHT22;6406;59.312;18.058;2023-02-08T01:19:53;2.60;99.90
12684;DHT22;6406;59.312;18.058;2023-02-08T01:22:20;3.50;99.90
12684;DHT22;6406;59.312;18.058;2023-02-08T01:24:47;2.60;99.90
12684;DHT22;6406;59.312;18.058;2023-02-08T01:27:15;3.40;99.90
12684;DHT22;6406;59.312;18.058;2023-02-08T01:29:42;4.10;99.90
12684;DHT22;6406;59.312;18.058;2023-02-08T01:32:09;2.90;99.90
12684;DHT22;6406;59.312;18.058;2023-02-08T01:34:36;4.30;99.90
12684;DHT22;6406;59.312;18.058;2023-02-08T01:37:03;2.60;99.90
12684;DHT22;6406;59.312;18.058;2023-02-08T01:39:31;3.20;99.90
12684;DHT22;6406;59.312;18.058;2023-02-08T01:41:58;2.60;99.90
12684;DHT22;6406;59.312;18.058;2023-02-08T01:47:30;2.70;99.90
12684;DHT22;6406;59.312;18.058;2023-02-08T01:49:59;4.00;99.90
12684;DHT22;6406;59.312;18.058;2023-02-08T01:52:27;2.70;99.90
12684;DHT22;6406;59.312;18.058;2023-02-08T01:54:57;2.70;99.90
12684;DHT22;6406;59.312;18.058;2023-02-08T01:57:25;2.70;99.90
12684;DHT22;6406;59.312;18.058;2023-02-08T01:59:55;2.70;99.90
12684;DHT22;6406;59.312;18.058;2023-02-08T02:02:24;2.70;99.90
12684;DHT22;6406;59.312;18.058;2023-02-08T02:04:53;3.40;99.90
12684;DHT22;6406;59.312;18.058;2023-02-08T02:07:23;2.80;99.90
12684;DHT22;6406;59.312;18.058;2023-02-08T02:09:55;3.00;99.90
12684;DHT22;6406;59.312;18.058;2023-02-08T02:12:23;3.40;99.90
12684;DHT22;6406;59.312;18.058;2023-02-08T02:14:51;2.80;99.90
12684;DHT22;6406;59.312;18.058;2023-02-08T02:17:19;3.60;99.90
12684;DHT22;6406;59.312;18.058;2023-02-08T02:19:54;3.60;99.90
12684;DHT22;6406;59.312;18.058;2023-02-08T02:22:48;4.00;99.90
12684;DHT22;6406;59.312;18.058;2023-02-08T02:25:57;3.60;99.90
12684;DHT22;6406;59.312;18.058;2023-02-08T02:28:43;2.80;99.90
12684;DHT22;6406;59.312;18.058;2023-02-08T02:31:43;2.90;99.90
12684;DHT22;6406;59.312;18.058;2023-02-08T02:34:17;2.90;99.90
12684;DHT22;6406;59.312;18.058;2023-02-08T02:36:52;2.90;99.90
12684;DHT22;6406;59.312;18.058;2023-02-08T02:39:22;2.90;99.90
12684;DHT22;6406;59.312;18.058;2023-02-08T02:41:55;2.90;99.90
12684;DHT22;6406;59.312;18.058;2023-02-08T02:44:50;4.50;99.90
12684;DHT22;6406;59.312;18.058;2023-02-08T02:47:26;3.60;99.90
12684;DHT22;6406;59.312;18.058;2023-02-08T02:50:00;2.90;99.90
12684;DHT22;6406;59.312;18.058;2023-02-08T02:52:35;2.90;99.90
12684;DHT22;6406;59.312;18.058;2023-02-08T02:55:07;3.40;99.90
12684;DHT22;6406;59.312;18.058;2023-02-08T02:57:36;2.90;99.90
12684;DHT22;6406;59.312;18.058;2023-02-08T03:00:08;2.90;99.90
12684;DHT22;6406;59.312;18.058;2023-02-08T03:02:37;2.90;99.90
12684;DHT22;6406;59.312;18.058;2023-02-08T03:05:06;2.80;99.90
12684;DHT22;6406;59.312;18.058;2023-02-08T03:07:52;2.90;99.90
12684;DHT22;6406;59.312;18.058;2023-02-08T03:10:44;2.90;99.90
12684;DHT22;6406;59.312;18.058;2023-02-08T03:13:24;2.80;99.90
12684;DHT22;6406;59.312;18.058;2023-02-08T03:15:59;2.90;99.90
12684;DHT22;6406;59.312;18.058;2023-02-08T03:18:34;2.80;99.90
12684;DHT22;6406;59.312;18.058;2023-02-08T03:21:08;2.80;99.90
12684;DHT22;6406;59.312;18.058;2023-02-08T03:23:40;2.80;99.90
12684;DHT22;6406;59.312;18.058;2023-02-08T03:26:19;2.80;99.90
12684;DHT22;6406;59.312;18.058;2023-02-08T03:28:54;2.80;99.90
12684;DHT22;6406;59.312;18.058;2023-02-08T03:31:27;2.80;99.90
12684;DHT22;6406;59.312;18.058;2023-02-08T03:34:01;2.80;99.90
12684;DHT22;6406;59.312;18.058;2023-02-08T03:36:35;3.00;99.90
12684;DHT22;6406;59.312;18.058;2023-02-08T03:39:07;4.20;99.90
12684;DHT22;6406;59.312;18.058;2023-02-08T03:41:39;2.70;99.90
12684;DHT22;6406;59.312;18.058;2023-02-08T03:44:11;3.50;99.90
12684;DHT22;6406;59.312;18.058;2023-02-08T03:46:41;2.80;99.90
12684;DHT22;6406;59.312;18.058;2023-02-08T03:49:14;2.80;99.90
12684;DHT22;6406;59.312;18.058;2023-02-08T03:51:43;4.40;99.90
12684;DHT22;6406;59.312;18.058;2023-02-08T03:54:14;2.80;99.90
12684;DHT22;6406;59.312;18.058;2023-02-08T03:56:45;4.40;99.90
12684;DHT22;6406;59.312;18.058;2023-02-08T03:59:17;2.90;99.90
12684;DHT22;6406;59.312;18.058;2023-02-08T04:01:49;4.20;99.90
12684;DHT22;6406;59.312;18.058;2023-02-08T04:04:20;2.90;99.90
12684;DHT22;6406;59.312;18.058;2023-02-08T04:06:48;2.90;99.90
12684;DHT22;6406;59.312;18.058;2023-02-08T04:09:15;4.20;99.90
12684;DHT22;6406;59.312;18.058;2023-02-08T04:11:42;2.90;99.90
12684;DHT22;6406;59.312;18.058;2023-02-08T04:14:09;3.70;99.90
12684;DHT22;6406;59.312;18.058;2023-02-08T04:16:36;2.90;99.90
12684;DHT22;6406;59.312;18.058;2023-02-08T04:19:03;2.90;99.90
12684;DHT22;6406;59.312;18.058;2023-02-08T04:21:31;4.00;99.90
12684;DHT22;6406;59.312;18.058;2023-02-08T04:23:59;2.90;99.90
12684;DHT22;6406;59.312;18.058;2023-02-08T04:26:26;3.20;99.90
12684;DHT22;6406;59.312;18.058;2023-02-08T04:28:53;2.90;99.90
12684;DHT22;6406;59.312;18.058;2023-02-08T04:31:20;2.90;99.90
12684;DHT22;6406;59.312;18.058;2023-02-08T04:33:47;2.80;99.90
12684;DHT22;6406;59.312;18.058;2023-02-08T04:36:14;3.00;99.90
12684;DHT22;6406;59.312;18.058;2023-02-08T04:38:44;4.60;99.90
12684;DHT22;6406;59.312;18.058;2023-02-08T04:41:11;2.90;99.90
12684;DHT22;6406;59.312;18.058;2023-02-08T04:43:38;4.00;99.90
12684;DHT22;6406;59.312;18.058;2023-02-08T04:46:05;2.90;99.90
12684;DHT22;6406;59.312;18.058;2023-02-08T04:48:32;2.90;99.90
12684;DHT22;6406;59.312;18.058;2023-02-08T04:50:59;2.90;99.90
12684;DHT22;6406;59.312;18.058;2023-02-08T04:53:26;4.30;99.90
12684;DHT22;6406;59.312;18.058;2023-02-08T04:55:55;3.80;99.90
12684;DHT22;6406;59.312;18.058;2023-02-08T04:58:22;2.90;99.90
12684;DHT22;6406;59.312;18.058;2023-02-08T05:00:49;2.90;99.90
12684;DHT22;6406;59.312;18.058;2023-02-08T05:03:18;4.40;99.90
12684;DHT22;6406;59.312;18.058;2023-02-08T05:05:45;2.90;99.90
12684;DHT22;6406;59.312;18.058;2023-02-08T05:08:12;4.10;99.90
12684;DHT22;6406;59.312;18.058;2023-02-08T05:10:43;4.30;99.90
12684;DHT22;6406;59.312;18.058;2023-02-08T05:13:12;3.10;99.90
12684;DHT22;6406;59.312;18.058;2023-02-08T05:15:39;3.00;99.90
12684;DHT22;6406;59.312;18.058;2023-02-08T05:18:06;3.00;99.90
12684;DHT22;6406;59.312;18.058;2023-02-08T05:20:33;3.00;99.90
12684;DHT22;6406;59.312;18.058;2023-02-08T05:23:03;3.00;99.90
12684;DHT22;6406;59.312;18.058;2023-02-08T05:25:30;3.00;99.90
12684;DHT22;6406;59.312;18.058;2023-02-08T05:27:58;2.30;99.90
12684;DHT22;6406;59.312;18.058;2023-02-08T05:30:27;3.30;99.90
12684;DHT22;6406;59.312;18.058;2023-02-08T05:32:56;3.50;99.90
12684;DHT22;6406;59.312;18.058;2023-02-08T05:35:23;3.10;99.90
12684;DHT22;6406;59.312;18.058;2023-02-08T05:37:50;3.10;99.90
12684;DHT22;6406;59.312;18.058;2023-02-08T05:40:22;3.20;99.90
12684;DHT22;6406;59.312;18.058;2023-02-08T05:42:49;3.10;99.90
12684;DHT22;6406;59.312;18.058;2023-02-08T05:45:16;4.70;99.90
12684;DHT22;6406;59.312;18.058;2023-02-08T05:47:45;3.20;99.90
12684;DHT22;6406;59.312;18.058;2023-02-08T05:50:12;3.10;99.90
12684;DHT22;6406;59.312;18.058;2023-02-08T05:52:43;3.20;99.90
12684;DHT22;6406;59.312;18.058;2023-02-08T05:55:14;3.10;99.90
12684;DHT22;6406;59.312;18.058;2023-02-08T05:57:41;3.20;99.90
12684;DHT22;6406;59.312;18.058;2023-02-08T06:00:10;3.30;99.90
12684;DHT22;6406;59.312;18.058;2023-02-08T06:02:37;3.30;99.90
12684;DHT22;6406;59.312;18.058;2023-02-08T06:05:06;3.30;99.90
12684;DHT22;6406;59.312;18.058;2023-02-08T06:07:33;3.30;99.90
12684;DHT22;6406;59.312;18.058;2023-02-08T06:10:04;3.30;99.90
12684;DHT22;6406;59.312;18.058;2023-02-08T06:12:38;3.30;99.90
12684;DHT22;6406;59.312;18.058;2023-02-08T06:15:08;3.20;99.90
12684;DHT22;6406;59.312;18.058;2023-02-08T06:17:35;3.60;99.90
12684;DHT22;6406;59.312;18.058;2023-02-08T06:20:05;3.30;99.90
12684;DHT22;6406;59.312;18.058;2023-02-08T06:22:33;3.40;99.90
12684;DHT22;6406;59.312;18.058;2023-02-08T06:25:02;3.40;99.90
12684;DHT22;6406;59.312;18.058;2023-02-08T06:27:30;3.30;99.90
12684;DHT22;6406;59.312;18.058;2023-02-08T06:29:57;4.10;99.90
12684;DHT22;6406;59.312;18.058;2023-02-08T06:32:25;3.50;99.90
12684;DHT22;6406;59.312;18.058;2023-02-08T06:34:52;3.40;99.90
12684;DHT22;6406;59.312;18.058;2023-02-08T06:37:22;3.40;99.90
12684;DHT22;6406;59.312;18.058;2023-02-08T06:39:49;3.40;99.90
12684;DHT22;6406;59.312;18.058;2023-02-08T06:42:17;3.40;99.90
12684;DHT22;6406;59.312;18.058;2023-02-08T06:44:44;3.50;99.90
12684;DHT22;6406;59.312;18.058;2023-02-08T06:47:14;3.70;99.90
12684;DHT22;6406;59.312;18.058;2023-02-08T06:49:41;3.50;99.90
12684;DHT22;6406;59.312;18.058;2023-02-08T06:52:10;3.50;99.90
12684;DHT22;6406;59.312;18.058;2023-02-08T06:54:45;3.50;99.90
12684;DHT22;6406;59.312;18.058;2023-02-08T06:57:13;3.50;99.90
12684;DHT22;6406;59.312;18.058;2023-02-08T06:59:41;3.50;99.90
12684;DHT22;6406;59.312;18.058;2023-02-08T07:02:12;3.50;99.90
12684;DHT22;6406;59.312;18.058;2023-02-08T07:04:39;3.50;99.90
12684;DHT22;6406;59.312;18.058;2023-02-08T07:07:07;3.60;99.90
12684;DHT22;6406;59.312;18.058;2023-02-08T07:09:35;3.70;99.90
12684;DHT22;6406;59.312;18.058;2023-02-08T07:12:04;3.70;99.90
12684;DHT22;6406;59.312;18.058;2023-02-08T07:14:34;6.10;99.90
12684;DHT22;6406;59.312;18.058;2023-02-08T07:17:14;4.10;99.90
12684;DHT22;6406;59.312;18.058;2023-02-08T07:19:41;4.50;99.90
12684;DHT22;6406;59.312;18.058;2023-02-08T07:22:08;3.90;99.90
12684;DHT22;6406;59.312;18.058;2023-02-08T07:24:37;4.10;99.90
12684;DHT22;6406;59.312;18.058;2023-02-08T07:27:14;4.30;99.90
12684;DHT22;6406;59.312;18.058;2023-02-08T07:29:42;4.00;99.90
12684;DHT22;6406;59.312;18.058;2023-02-08T07:32:11;5.00;99.90
12684;DHT22;6406;59.312;18.058;2023-02-08T07:34:39;4.10;99.90
12684;DHT22;6406;59.312;18.058;2023-02-08T07:37:06;4.10;99.90
12684;DHT22;6406;59.312;18.058;2023-02-08T07:39:34;4.00;99.90
12684;DHT22;6406;59.312;18.058;2023-02-08T07:42:02;4.30;99.90
12684;DHT22;6406;59.312;18.058;2023-02-08T07:44:32;1.40;99.90
12684;DHT22;6406;59.312;18.058;2023-02-08T07:47:00;4.10;99.90
12684;DHT22;6406;59.312;18.058;2023-02-08T07:49:30;4.20;99.90
12684;DHT22;6406;59.312;18.058;2023-02-08T07:52:00;4.50;99.90
12684;DHT22;6406;59.312;18.058;2023-02-08T07:54:27;4.20;99.90
12684;DHT22;6406;59.312;18.058;2023-02-08T07:56:55;4.20;99.90
12684;DHT22;6406;59.312;18.058;2023-02-08T07:59:23;4.20;99.90
12684;DHT22;6406;59.312;18.058;2023-02-08T08:01:53;4.50;99.90
12684;DHT22;6406;59.312;18.058;2023-02-08T08:04:23;4.40;99.90
12684;DHT22;6406;59.312;18.058;2023-02-08T08:06:51;4.40;99.90
12684;DHT22;6406;59.312;18.058;2023-02-08T08:09:22;4.30;99.90
12684;DHT22;6406;59.312;18.058;2023-02-08T08:11:49;4.50;99.90
12684;DHT22;6406;59.312;18.058;2023-02-08T08:14:17;4.50;99.90
12684;DHT22;6406;59.312;18.058;2023-02-08T08:16:47;4.60;99.90
12684;DHT22;6406;59.312;18.058;2023-02-08T08:19:22;4.70;99.90
12684;DHT22;6406;59.312;18.058;2023-02-08T08:21:53;4.70;99.90
12684;DHT22;6406;59.312;18.058;2023-02-08T08:24:20;4.60;99.90
12684;DHT22;6406;59.312;18.058;2023-02-08T08:26:47;4.60;99.90
12684;DHT22;6406;59.312;18.058;2023-02-08T08:29:15;4.90;99.90
12684;DHT22;6406;59.312;18.058;2023-02-08T08:31:42;4.50;99.90
12684;DHT22;6406;59.312;18.058;2023-02-08T08:34:10;4.50;99.90
12684;DHT22;6406;59.312;18.058;2023-02-08T08:36:39;4.70;99.90
12684;DHT22;6406;59.312;18.058;2023-02-08T08:39:06;4.70;99.90
12684;DHT22;6406;59.312;18.058;2023-02-08T08:41:33;4.70;99.90
12684;DHT22;6406;59.312;18.058;2023-02-08T08:44:01;4.60;99.90
12684;DHT22;6406;59.312;18.058;2023-02-08T08:46:29;4.70;99.90
12684;DHT22;6406;59.312;18.058;2023-02-08T08:48:57;4.70;99.90
12684;DHT22;6406;59.312;18.058;2023-02-08T08:51:24;4.70;99.90
12684;DHT22;6406;59.312;18.058;2023-02-08T08:53:54;4.80;99.90
12684;DHT22;6406;59.312;18.058;2023-02-08T08:56:21;4.80;99.90
12684;DHT22;6406;59.312;18.058;2023-02-08T08:58:48;5.00;99.90
12684;DHT22;6406;59.312;18.058;2023-02-08T09:01:16;4.80;99.90
12684;DHT22;6406;59.312;18.058;2023-02-08T09:03:44;4.80;99.90
12684;DHT22;6406;59.312;18.058;2023-02-08T09:06:14;4.80;99.90
12684;DHT22;6406;59.312;18.058;2023-02-08T09:08:45;4.80;99.90
12684;DHT22;6406;59.312;18.058;2023-02-08T09:11:17;4.80;99.90
12684;DHT22;6406;59.312;18.058;2023-02-08T09:13:45;4.70;99.90
12684;DHT22;6406;59.312;18.058;2023-02-08T09:16:16;2.10;99.90
12684;DHT22;6406;59.312;18.058;2023-02-08T09:19:15;4.80;99.90
12684;DHT22;6406;59.312;18.058;2023-02-08T09:21:51;4.90;99.90
12684;DHT22;6406;59.312;18.058;2023-02-08T09:24:18;4.90;99.90
12684;DHT22;6406;59.312;18.058;2023-02-08T09:26:47;5.20;99.90
12684;DHT22;6406;59.312;18.058;2023-02-08T09:29:14;5.00;99.90
12684;DHT22;6406;59.312;18.058;2023-02-08T09:31:42;5.20;99.90
12684;DHT22;6406;59.312;18.058;2023-02-08T09:34:12;5.10;99.90
12684;DHT22;6406;59.312;18.058;2023-02-08T09:36:40;4.10;99.90
12684;DHT22;6406;59.312;18.058;2023-02-08T09:39:15;5.00;99.90
12684;DHT22;6406;59.312;18.058;2023-02-08T09:42:21;3.80;99.90
12684;DHT22;6406;59.312;18.058;2023-02-08T09:45:17;5.50;99.90
12684;DHT22;6406;59.312;18.058;2023-02-08T09:48:14;5.20;99.90
12684;DHT22;6406;59.312;18.058;2023-02-08T09:50:53;5.10;99.90
12684;DHT22;6406;59.312;18.058;2023-02-08T09:53:28;5.20;99.90
12684;DHT22;6406;59.312;18.058;2023-02-08T09:56:03;5.30;99.90
12684;DHT22;6406;59.312;18.058;2023-02-08T09:59:01;5.70;99.90
12684;DHT22;6406;59.312;18.058;2023-02-08T10:01:52;4.10;99.90
12684;DHT22;6406;59.312;18.058;2023-02-08T10:04:39;5.50;99.90
12684;DHT22;6406;59.312;18.058;2023-02-08T10:07:12;5.40;99.90
12684;DHT22;6406;59.312;18.058;2023-02-08T10:09:42;5.20;99.90
12684;DHT22;6406;59.312;18.058;2023-02-08T10:12:18;5.30;99.90
12684;DHT22;6406;59.312;18.058;2023-02-08T10:15:01;5.80;99.90
12684;DHT22;6406;59.312;18.058;2023-02-08T10:17:43;5.30;99.90
12684;DHT22;6406;59.312;18.058;2023-02-08T10:20:29;5.40;99.90
12684;DHT22;6406;59.312;18.058;2023-02-08T10:23:06;5.40;99.90
12684;DHT22;6406;59.312;18.058;2023-02-08T10:25:45;5.60;99.90
12684;DHT22;6406;59.312;18.058;2023-02-08T10:28:35;5.30;99.90
12684;DHT22;6406;59.312;18.058;2023-02-08T10:31:17;5.30;99.90
12684;DHT22;6406;59.312;18.058;2023-02-08T10:33:57;5.30;99.90
12684;DHT22;6406;59.312;18.058;2023-02-08T10:36:34;5.30;99.90
12684;DHT22;6406;59.312;18.058;2023-02-08T10:39:14;3.60;99.90
12684;DHT22;6406;59.312;18.058;2023-02-08T10:41:43;4.30;99.90
12684;DHT22;6406;59.312;18.058;2023-02-08T10:44:31;5.30;99.90
12684;DHT22;6406;59.312;18.058;2023-02-08T10:47:14;5.90;99.90
12684;DHT22;6406;59.312;18.058;2023-02-08T10:49:52;5.30;99.90
12684;DHT22;6406;59.312;18.058;2023-02-08T10:52:28;5.40;99.90
12684;DHT22;6406;59.312;18.058;2023-02-08T10:54:57;5.50;99.90
12684;DHT22;6406;59.312;18.058;2023-02-08T10:57:27;5.20;99.90
12684;DHT22;6406;59.312;18.058;2023-02-08T10:59:59;3.30;99.90
12684;DHT22;6406;59.312;18.058;2023-02-08T11:02:40;5.60;99.90
12684;DHT22;6406;59.312;18.058;2023-02-08T11:05:36;5.70;99.90
12684;DHT22;6406;59.312;18.058;2023-02-08T11:08:06;5.50;99.90
12684;DHT22;6406;59.312;18.058;2023-02-08T11:10:35;5.60;99.90
12684;DHT22;6406;59.312;18.058;2023-02-08T11:13:05;5.70;99.90
12684;DHT22;6406;59.312;18.058;2023-02-08T11:15:38;5.70;99.90
12684;DHT22;6406;59.312;18.058;2023-02-08T11:18:18;7.10;99.90
12684;DHT22;6406;59.312;18.058;2023-02-08T11:20:51;5.70;99.90
12684;DHT22;6406;59.312;18.058;2023-02-08T11:23:23;5.80;99.90
12684;DHT22;6406;59.312;18.058;2023-02-08T11:25:52;6.00;99.90
12684;DHT22;6406;59.312;18.058;2023-02-08T11:28:28;5.70;99.90
12684;DHT22;6406;59.312;18.058;2023-02-08T11:31:13;4.70;99.90
12684;DHT22;6406;59.312;18.058;2023-02-08T11:33:58;6.10;99.90
12684;DHT22;6406;59.312;18.058;2023-02-08T11:36:28;4.20;99.90
12684;DHT22;6406;59.312;18.058;2023-02-08T11:38:56;6.00;99.90
12684;DHT22;6406;59.312;18.058;2023-02-08T11:41:24;5.60;99.90
12684;DHT22;6406;59.312;18.058;2023-02-08T11:43:58;3.90;99.90
12684;DHT22;6406;59.312;18.058;2023-02-08T11:46:28;5.50;99.90
12684;DHT22;6406;59.312;18.058;2023-02-08T11:48:58;5.50;99.90
12684;DHT22;6406;59.312;18.058;2023-02-08T11:51:29;5.50;99.90
12684;DHT22;6406;59.312;18.058;2023-02-08T11:53:57;5.50;99.90
12684;DHT22;6406;59.312;18.058;2023-02-08T11:56:27;5.50;99.90
12684;DHT22;6406;59.312;18.058;2023-02-08T11:59:17;5.60;99.90
12684;DHT22;6406;59.312;18.058;2023-02-08T12:01:50;5.50;99.90
12684;DHT22;6406;59.312;18.058;2023-02-08T12:04:18;5.50;99.90
12684;DHT22;6406;59.312;18.058;2023-02-08T12:07:13;6.50;99.90
12684;DHT22;6406;59.312;18.058;2023-02-08T12:10:03;5.50;99.90
12684;DHT22;6406;59.312;18.058;2023-02-08T12:12:47;5.50;99.90
12684;DHT22;6406;59.312;18.058;2023-02-08T12:15:35;5.10;99.90
12684;DHT22;6406;59.312;18.058;2023-02-08T12:18:18;5.50;99.90
12684;DHT22;6406;59.312;18.058;2023-02-08T12:20:55;5.50;99.90
12684;DHT22;6406;59.312;18.058;2023-02-08T12:23:42;5.50;99.90
12684;DHT22;6406;59.312;18.058;2023-02-08T12:26:22;5.60;99.90
12684;DHT22;6406;59.312;18.058;2023-02-08T12:29:12;5.40;99.90
12684;DHT22;6406;59.312;18.058;2023-02-08T12:31:56;6.30;99.90
12684;DHT22;6406;59.312;18.058;2023-02-08T12:34:44;5.70;99.90
12684;DHT22;6406;59.312;18.058;2023-02-08T12:38:01;5.90;99.90
12684;DHT22;6406;59.312;18.058;2023-02-08T12:40:54;5.80;99.90
12684;DHT22;6406;59.312;18.058;2023-02-08T12:43:40;5.70;99.90
12684;DHT22;6406;59.312;18.058;2023-02-08T12:46:45;5.70;99.90
12684;DHT22;6406;59.312;18.058;2023-02-08T12:49:34;5.80;99.90
12684;DHT22;6406;59.312;18.058;2023-02-08T12:52:21;5.70;99.90
12684;DHT22;6406;59.312;18.058;2023-02-08T12:54:59;6.00;99.90
12684;DHT22;6406;59.312;18.058;2023-02-08T12:57:31;5.60;99.90
12684;DHT22;6406;59.312;18.058;2023-02-08T13:00:14;5.60;99.90
12684;DHT22;6406;59.312;18.058;2023-02-08T13:02:47;5.60;99.90
12684;DHT22;6406;59.312;18.058;2023-02-08T13:05:24;5.70;99.90
12684;DHT22;6406;59.312;18.058;2023-02-08T13:08:00;5.90;99.90
12684;DHT22;6406;59.312;18.058;2023-02-08T13:10:32;5.70;99.90
12684;DHT22;6406;59.312;18.058;2023-02-08T13:13:11;5.60;99.90
12684;DHT22;6406;59.312;18.058;2023-02-08T13:15:44;5.70;99.90
12684;DHT22;6406;59.312;18.058;2023-02-08T13:18:16;5.70;99.90
12684;DHT22;6406;59.312;18.058;2023-02-08T13:20:46;5.70;99.90
12684;DHT22;6406;59.312;18.058;2023-02-08T13:23:27;5.50;99.90
12684;DHT22;6406;59.312;18.058;2023-02-08T13:26:30;5.70;99.90
12684;DHT22;6406;59.312;18.058;2023-02-08T13:29:28;6.40;99.90
12684;DHT22;6406;59.312;18.058;2023-02-08T13:32:15;5.70;99.90
12684;DHT22;6406;59.312;18.058;2023-02-08T13:34:55;5.50;99.90
12684;DHT22;6406;59.312;18.058;2023-02-08T13:37:57;5.90;99.90
12684;DHT22;6406;59.312;18.058;2023-02-08T13:41:05;5.60;99.90
12684;DHT22;6406;59.312;18.058;2023-02-08T14:00:25;5.60;99.90
12684;DHT22;6406;59.312;18.058;2023-02-08T14:03:41;5.70;99.90
12684;DHT22;6406;59.312;18.058;2023-02-08T14:06:28;5.60;99.90
12684;DHT22;6406;59.312;18.058;2023-02-08T14:09:21;5.60;99.90
12684;DHT22;6406;59.312;18.058;2023-02-08T14:12:01;4.80;99.90
12684;DHT22;6406;59.312;18.058;2023-02-08T14:14:39;5.60;99.90
12684;DHT22;6406;59.312;18.058;2023-02-08T14:17:31;5.10;99.90
12684;DHT22;6406;59.312;18.058;2023-02-08T14:20:15;5.30;99.90
12684;DHT22;6406;59.312;18.058;2023-02-08T14:23:02;5.80;99.90
12684;DHT22;6406;59.312;18.058;2023-02-08T14:25:42;5.60;99.90
12684;DHT22;6406;59.312;18.058;2023-02-08T14:28:38;5.50;99.90
12684;DHT22;6406;59.312;18.058;2023-02-08T14:31:12;5.80;99.90
12684;DHT22;6406;59.312;18.058;2023-02-08T14:33:54;5.70;99.90
12684;DHT22;6406;59.312;18.058;2023-02-08T14:36:28;5.50;99.90
12684;DHT22;6406;59.312;18.058;2023-02-08T14:41:58;5.40;99.90
12684;DHT22;6406;59.312;18.058;2023-02-08T14:44:59;5.50;99.90
12684;DHT22;6406;59.312;18.058;2023-02-08T14:48:06;5.30;99.90
12684;DHT22;6406;59.312;18.058;2023-02-08T14:50:55;8.10;99.90
12684;DHT22;6406;59.312;18.058;2023-02-08T14:53:55;5.70;99.90
12684;DHT22;6406;59.312;18.058;2023-02-08T14:56:38;5.40;99.90
12684;DHT22;6406;59.312;18.058;2023-02-08T14:59:14;5.30;99.90
12684;DHT22;6406;59.312;18.058;2023-02-08T15:01:44;5.40;99.90
12684;DHT22;6406;59.312;18.058;2023-02-08T15:04:14;5.40;99.90
12684;DHT22;6406;59.312;18.058;2023-02-08T15:09:50;5.30;99.90
12684;DHT22;6406;59.312;18.058;2023-02-08T15:12:23;5.40;99.90
12684;DHT22;6406;59.312;18.058;2023-02-08T15:14:54;4.00;99.90
12684;DHT22;6406;59.312;18.058;2023-02-08T15:17:32;5.20;99.90
12684;DHT22;6406;59.312;18.058;2023-02-08T15:20:01;4.20;99.90
12684;DHT22;6406;59.312;18.058;2023-02-08T15:22:35;5.20;99.90
12684;DHT22;6406;59.312;18.058;2023-02-08T15:25:20;5.10;99.90
12684;DHT22;6406;59.312;18.058;2023-02-08T15:27:48;5.00;99.90
12684;DHT22;6406;59.312;18.058;2023-02-08T15:30:24;4.90;99.90
12684;DHT22;6406;59.312;18.058;2023-02-08T15:32:51;4.90;99.90
12684;DHT22;6406;59.312;18.058;2023-02-08T15:35:19;5.60;99.90
12684;DHT22;6406;59.312;18.058;2023-02-08T15:37:52;3.30;99.90
12684;DHT22;6406;59.312;18.058;2023-02-08T15:40:25;4.60;99.90
12684;DHT22;6406;59.312;18.058;2023-02-08T15:42:54;4.80;99.90
12684;DHT22;6406;59.312;18.058;2023-02-08T15:45:28;4.70;99.90
12684;DHT22;6406;59.312;18.058;2023-02-08T15:47:57;4.70;99.90
12684;DHT22;6406;59.312;18.058;2023-02-08T15:50:25;4.70;99.90
12684;DHT22;6406;59.312;18.058;2023-02-08T15:52:58;6.60;99.90
12684;DHT22;6406;59.312;18.058;2023-02-08T15:55:31;4.60;99.90
12684;DHT22;6406;59.312;18.058;2023-02-08T15:58:03;4.70;99.90
12684;DHT22;6406;59.312;18.058;2023-02-08T16:00:34;4.60;99.90
12684;DHT22;6406;59.312;18.058;2023-02-08T16:03:16;4.60;99.90
12684;DHT22;6406;59.312;18.058;2023-02-08T16:05:48;4.60;99.90
12684;DHT22;6406;59.312;18.058;2023-02-08T16:08:21;4.00;99.90
12684;DHT22;6406;59.312;18.058;2023-02-08T16:10:52;4.60;99.90
12684;DHT22;6406;59.312;18.058;2023-02-08T16:13:23;4.60;99.90
12684;DHT22;6406;59.312;18.058;2023-02-08T16:15:53;4.60;99.90
12684;DHT22;6406;59.312;18.058;2023-02-08T16:18:39;4.50;99.90
12684;DHT22;6406;59.312;18.058;2023-02-08T16:21:27;4.50;99.90
12684;DHT22;6406;59.312;18.058;2023-02-08T16:23:58;4.60;99.90
12684;DHT22;6406;59.312;18.058;2023-02-08T16:26:28;4.70;99.90
12684;DHT22;6406;59.312;18.058;2023-02-08T16:28:59;4.60;99.90
12684;DHT22;6406;59.312;18.058;2023-02-08T16:31:28;4.80;99.90
12684;DHT22;6406;59.312;18.058;2023-02-08T16:33:59;4.60;99.90
12684;DHT22;6406;59.312;18.058;2023-02-08T16:36:55;3.20;99.90
12684;DHT22;6406;59.312;18.058;2023-02-08T16:39:40;3.30;99.90
12684;DHT22;6406;59.312;18.058;2023-02-08T16:42:23;4.50;99.90
12684;DHT22;6406;59.312;18.058;2023-02-08T16:44:59;4.50;99.90
12684;DHT22;6406;59.312;18.058;2023-02-08T16:47:34;2.40;99.90
12684;DHT22;6406;59.312;18.058;2023-02-08T16:50:02;4.70;99.90
12684;DHT22;6406;59.312;18.058;2023-02-08T16:52:30;6.90;99.90